createdAt,value
2022-08-10T00:01:14.957Z,19.19
2022-08-10T00:07:07.275Z,19.05
2022-08-10T00:12:55.317Z,18.95
2022-08-10T00:18:42.727Z,19.16
2022-08-10T00:24:29.493Z,19.23
2022-08-10T00:30:16.372Z,19.29
2022-08-10T00:36:06.046Z,19.09
2022-08-10T00:42:07.669Z,18.96
2022-08-10T00:47:55.873Z,19.05
2022-08-10T00:53:42.803Z,19.05
2022-08-10T00:59:32.109Z,18.91
2022-08-10T01:05:20.501Z,18.83
2022-08-10T01:11:42.412Z,18.84
2022-08-10T01:17:50.815Z,18.79
2022-08-10T01:23:47.076Z,18.55
2022-08-10T01:29:53.124Z,18.63
2022-08-10T01:35:58.167Z,18.67
2022-08-10T01:41:47.107Z,18.74
2022-08-10T01:47:57.964Z,18.81
2022-08-10T01:53:52.194Z,18.73
2022-08-10T01:59:41.932Z,18.79
2022-08-10T02:05:44.409Z,18.76
2022-08-10T02:11:55.806Z,18.61
2022-08-10T02:17:59.158Z,18.32
2022-08-10T02:23:54.129Z,18.45
2022-08-10T02:29:49.167Z,18.29
2022-08-10T02:35:54.426Z,18.27
2022-08-10T02:45:01.161Z,18.29
2022-08-10T02:48:13.658Z,18.22
2022-08-10T02:54:09.291Z,18.27
2022-08-10T03:00:00.487Z,18.23
2022-08-10T03:05:50.196Z,18.25
2022-08-10T03:12:35.940Z,18.26
2022-08-10T03:17:57.389Z,18.17
2022-08-10T03:23:45.932Z,18.04
2022-08-10T03:30:29.399Z,18.03
2022-08-10T03:35:40.378Z,17.87
2022-08-10T03:41:35.543Z,17.84
2022-08-10T03:47:24.443Z,17.80
2022-08-10T03:53:25.206Z,17.82
2022-08-10T03:59:18.414Z,17.79
2022-08-10T04:05:05.901Z,17.79
2022-08-10T04:10:52.816Z,17.69
2022-08-10T04:16:39.454Z,17.67
2022-08-10T04:22:27.764Z,17.63
2022-08-10T04:28:17.141Z,17.54
2022-08-10T04:34:08.730Z,17.49
2022-08-10T04:39:56.353Z,17.41
2022-08-10T04:45:49.681Z,17.60
2022-08-10T04:51:38.287Z,17.56
2022-08-10T04:57:25.113Z,17.41
2022-08-10T05:04:36.055Z,17.38
2022-08-10T05:10:24.597Z,17.43
2022-08-10T05:16:11.864Z,17.51
2022-08-10T05:22:19.009Z,17.63
2022-08-10T05:28:06.979Z,18.61
2022-08-10T05:33:53.989Z,19.75
2022-08-10T05:39:43.216Z,19.47
2022-08-10T05:45:30.428Z,19.82
2022-08-10T05:51:20.454Z,19.59
2022-08-10T05:57:08.394Z,19.05
2022-08-10T06:03:00.670Z,18.91
2022-08-10T06:08:49.384Z,18.96
2022-08-10T06:14:59.791Z,18.55
2022-08-10T06:20:47.635Z,18.34
2022-08-10T06:26:34.629Z,18.61
2022-08-10T06:32:25.898Z,19.05
2022-08-10T06:38:16.509Z,18.91
2022-08-10T06:44:11.530Z,18.92
2022-08-10T06:50:09.181Z,19.18
2022-08-10T06:56:37.564Z,19.20
2022-08-10T07:02:36.997Z,19.35
2022-08-10T07:08:25.454Z,19.43
2022-08-10T07:14:18.417Z,19.79
2022-08-10T07:20:12.226Z,20.07
2022-08-10T07:26:04.048Z,20.15
2022-08-10T07:31:56.648Z,20.36
2022-08-10T07:37:48.105Z,20.64
2022-08-10T07:43:43.676Z,20.96
2022-08-10T07:49:42.031Z,20.75
2022-08-10T07:56:03.506Z,21.15
2022-08-10T08:01:49.209Z,21.47
2022-08-10T08:07:39.064Z,22.02
2022-08-10T08:13:27.533Z,22.67
2022-08-10T08:19:35.584Z,23.23
2022-08-10T08:25:22.851Z,23.36
2022-08-10T08:31:15.530Z,23.87
2022-08-10T08:37:03.349Z,23.77
2022-08-10T08:43:08.886Z,24.21
2022-08-10T08:49:07.705Z,24.47
2022-08-10T08:56:04.946Z,25.09
2022-08-10T09:01:58.559Z,25.39
2022-08-10T09:08:06.204Z,25.67
2022-08-10T09:14:06.855Z,25.69
2022-08-10T09:20:03.395Z,25.62
2022-08-10T09:26:07.959Z,25.92
2022-08-10T09:35:40.073Z,26.78
2022-08-10T09:38:42.628Z,26.43
2022-08-10T09:45:17.316Z,26.85
2022-08-10T09:51:45.217Z,27.37
2022-08-10T09:57:51.205Z,27.38
2022-08-10T10:04:03.099Z,26.76
2022-08-10T10:10:13.834Z,26.92
2022-08-10T10:16:13.506Z,27.43
2022-08-10T10:22:24.155Z,27.74
2022-08-10T10:35:21.842Z,27.98
2022-08-10T10:41:57.309Z,27.97
2022-08-10T10:48:08.203Z,28.12
2022-08-10T10:54:04.783Z,28.53
2022-08-10T11:00:02.259Z,28.45
2022-08-10T11:06:14.899Z,28.99
2022-08-10T11:12:11.042Z,28.42
2022-08-10T11:18:10.490Z,28.47
2022-08-10T11:24:42.773Z,28.38
2022-08-10T11:30:49.785Z,28.47
2022-08-10T11:36:42.885Z,28.22
2022-08-10T11:42:45.346Z,28.33
2022-08-10T11:48:56.997Z,28.47
2022-08-10T11:54:53.528Z,28.33
2022-08-10T12:00:41.568Z,28.60
2022-08-10T12:06:54.321Z,28.54
2022-08-10T12:12:46.205Z,28.97
2022-08-10T12:18:35.042Z,28.70
2022-08-10T12:24:36.339Z,28.96
2022-08-10T12:30:36.186Z,28.60
2022-08-10T12:36:28.130Z,28.52
2022-08-10T12:42:39.351Z,28.75
2022-08-10T12:48:38.258Z,28.95
2022-08-10T12:54:31.856Z,28.86
2022-08-10T13:00:20.367Z,28.81
2022-08-10T13:06:10.822Z,29.03
2022-08-10T13:12:35.399Z,29.10
2022-08-10T13:18:19.706Z,28.71
2022-08-10T13:24:16.767Z,28.91
2022-08-10T13:30:07.195Z,28.91
2022-08-10T13:35:58.883Z,28.67
2022-08-10T13:41:53.884Z,28.66
2022-08-10T13:47:48.829Z,28.79
2022-08-10T13:53:36.836Z,28.96
2022-08-10T14:00:33.860Z,28.70
2022-08-10T14:05:38.435Z,28.67
2022-08-10T14:11:28.016Z,28.54
2022-08-10T14:17:21.006Z,28.49
2022-08-10T14:23:10.637Z,28.27
2022-08-10T14:29:10.710Z,28.22
2022-08-10T14:36:19.740Z,28.18
2022-08-10T14:42:02.881Z,28.25
2022-08-10T14:47:52.628Z,28.41
2022-08-10T14:53:43.247Z,28.43
2022-08-10T15:00:24.188Z,28.38
2022-08-10T15:05:41.907Z,28.47
2022-08-10T15:12:13.354Z,28.60
2022-08-10T15:17:48.327Z,28.32
2022-08-10T15:24:05.266Z,28.14
2022-08-10T15:29:57.382Z,28.40
2022-08-10T15:36:05.415Z,28.32
2022-08-10T15:42:02.105Z,27.90
2022-08-10T15:48:03.343Z,27.98
2022-08-10T15:54:02.171Z,27.99
2022-08-10T15:59:54.954Z,28.02
2022-08-10T16:06:01.532Z,27.95
2022-08-10T16:12:17.364Z,28.00
2022-08-10T16:18:18.716Z,27.97
2022-08-10T16:24:15.405Z,27.84
2022-08-10T16:30:05.677Z,27.69
2022-08-10T16:35:57.665Z,27.98
2022-08-10T16:42:04.390Z,27.70
2022-08-10T16:47:54.044Z,27.57
2022-08-10T16:53:44.629Z,27.53
2022-08-10T16:59:38.736Z,27.64
2022-08-10T17:06:09.424Z,27.45
2022-08-10T17:11:39.937Z,27.30
2022-08-10T17:17:34.491Z,27.31
2022-08-10T17:23:23.345Z,27.21
2022-08-10T17:29:59.265Z,26.80
2022-08-10T17:35:30.941Z,26.63
2022-08-10T17:41:24.388Z,26.65
2022-08-10T17:47:12.660Z,26.72
2022-08-10T17:53:05.782Z,26.51
2022-08-10T17:58:58.396Z,26.35
2022-08-10T18:04:53.421Z,26.23
2022-08-10T18:10:41.749Z,26.25
2022-08-10T18:16:34.577Z,26.25
2022-08-10T18:22:24.166Z,26.32
2022-08-10T18:28:17.957Z,26.10
2022-08-10T18:34:07.367Z,25.84
2022-08-10T18:40:02.607Z,25.37
2022-08-10T18:45:53.120Z,25.38
2022-08-10T18:51:47.402Z,25.34
2022-08-10T18:58:09.620Z,24.94
2022-08-10T19:04:27.649Z,25.09
2022-08-10T19:10:40.222Z,24.85
2022-08-10T19:17:01.445Z,24.49
2022-08-10T19:23:05.495Z,24.19
2022-08-10T19:29:04.782Z,24.28
2022-08-10T19:35:27.280Z,24.14
2022-08-10T19:41:44.357Z,23.87
2022-08-10T19:47:47.781Z,23.78
2022-08-10T19:54:00.228Z,23.92
2022-08-10T20:00:06.446Z,23.41
2022-08-10T20:06:24.080Z,23.26
2022-08-10T20:12:42.642Z,23.18
2022-08-10T20:18:42.080Z,22.86
2022-08-10T20:24:48.324Z,22.67
2022-08-10T20:30:38.060Z,22.86
2022-08-10T20:36:32.051Z,22.78
2022-08-10T20:42:27.969Z,22.86
2022-08-10T20:48:23.786Z,22.39
2022-08-10T20:54:11.470Z,22.44
2022-08-10T21:00:30.669Z,22.42
2022-08-10T21:06:55.175Z,22.13
2022-08-10T21:13:03.567Z,22.13
2022-08-10T21:19:25.295Z,21.94
2022-08-10T21:25:31.325Z,21.64
2022-08-10T21:31:38.376Z,21.60
2022-08-10T21:38:13.538Z,21.49
2022-08-10T21:45:11.835Z,21.28
2022-08-10T21:51:24.722Z,21.22
2022-08-10T21:57:58.626Z,21.24
2022-08-10T22:04:08.393Z,21.25
2022-08-10T22:10:16.646Z,21.17
2022-08-10T22:16:27.438Z,20.95
2022-08-10T22:22:42.293Z,21.00
2022-08-10T22:29:11.537Z,20.68
2022-08-10T22:35:48.404Z,20.53
2022-08-10T22:42:11.270Z,20.68
2022-08-10T22:48:21.756Z,20.58
2022-08-10T22:54:34.299Z,20.47
2022-08-10T23:00:30.771Z,20.42
2022-08-10T23:06:21.054Z,20.54
2022-08-10T23:12:20.477Z,20.69
2022-08-10T23:18:28.894Z,20.78
2022-08-10T23:24:22.787Z,20.84
2022-08-10T23:30:17.447Z,20.68
2022-08-10T23:36:34.085Z,20.71
2022-08-10T23:42:37.384Z,20.41
2022-08-10T23:48:32.215Z,20.42
2022-08-10T23:54:22.126Z,20.33
